Time;durP1;ratioP1;P1;durP2;ratioP2;P2;SDS_P1;SDS_P2;PMS_P1;PMS_P2;Temp;Humidity;BMP_temperature;BMP_pressure;BME280_temperature;BME280_humidity;BME280_pressure;Samples;Min_cycle;Max_cycle;Signal;HPM_P1;HPM_P2
2023/05/31 00:01:21;;;;;;;13.63;3.60;;;;;;;15.15;100.00;100452.25;4910450;29;20239;-76
2023/05/31 00:03:48;;;;;;;11.07;2.90;;;14.70;97.10;;;15.04;100.00;100441.72;4911183;29;20266;-76
2023/05/31 00:06:15;;;;;;;11.52;3.08;;;14.60;97.00;;;14.96;100.00;100427.56;4911668;29;20235;-77
2023/05/31 00:08:43;;;;;;;8.07;2.13;;;14.60;97.40;;;14.87;100.00;100432.97;4910362;29;20231;-76
2023/05/31 00:11:10;;;;;;;14.38;3.72;;;14.50;97.10;;;14.88;100.00;100445.41;4912174;29;20242;-77
2023/05/31 00:13:40;;;;;;;9.00;2.55;;;14.60;97.40;;;14.89;100.00;100456.03;4911912;29;20246;-77
2023/05/31 00:16:10;;;;;;;9.23;2.38;;;14.50;97.30;;;14.83;100.00;100461.41;4907985;29;20242;-77
2023/05/31 00:18:57;;;;;;;10.82;2.90;;;14.40;97.30;;;14.79;100.00;100466.78;4910682;29;20316;-77
2023/05/31 00:21:25;;;;;;;9.73;2.75;;;14.40;97.70;;;14.87;100.00;100492.44;4913352;29;20341;-76
2023/05/31 00:23:52;;;;;;;11.63;3.08;;;14.40;97.50;;;14.70;100.00;100475.72;4920740;29;20232;-76
2023/05/31 00:26:19;;;;;;;20.50;4.95;;;14.50;97.80;;;14.80;100.00;100498.72;4905212;29;20238;-76
2023/05/31 00:28:46;;;;;;;12.77;3.20;;;14.40;97.50;;;14.66;100.00;100489.94;4910408;29;20684;-76
2023/05/31 00:31:13;;;;;;;12.35;3.05;;;14.30;97.80;;;14.67;100.00;100505.00;4910197;29;20294;-77
2023/05/31 00:33:44;;;;;;;16.40;4.05;;;14.30;98.10;;;14.68;100.00;100522.75;4906070;29;20229;-77
2023/05/31 00:36:11;;;;;;;13.35;3.38;;;14.30;98.00;;;14.70;100.00;100534.28;4909881;29;20246;-76
2023/05/31 00:38:39;;;;;;;10.05;2.60;;;;;;;14.62;100.00;100526.34;4910667;29;20253;-77
2023/05/31 00:41:09;;;;;;;15.30;3.78;;;14.30;98.20;;;14.56;100.00;100536.13;4904509;29;20244;-76
2023/05/31 00:43:37;;;;;;;10.30;2.90;;;;;;;14.51;100.00;100541.47;4911382;29;20235;-76
2023/05/31 00:46:04;;;;;;;8.40;2.38;;;14.20;98.10;;;14.56;100.00;100557.41;4909073;29;20247;-76
2023/05/31 00:48:32;;;;;;;8.95;2.38;;;14.20;98.20;;;14.57;100.00;100560.06;4907655;29;20227;-76
2023/05/31 00:50:59;;;;;;;10.93;2.70;;;14.20;98.50;;;14.76;100.00;100599.91;4904378;29;20603;-76
2023/05/31 00:53:27;;;;;;;13.07;3.53;;;14.30;98.40;;;14.59;100.00;100584.91;4909168;29;20263;-76
2023/05/31 00:55:54;;;;;;;11.65;2.78;;;;;;;14.57;100.00;100592.00;4908857;29;20266;-77
2023/05/31 00:58:23;;;;;;;11.52;2.83;;;14.30;98.70;;;14.52;100.00;100598.25;4908248;29;20230;-76
2023/05/31 01:00:50;;;;;;;11.57;3.15;;;14.20;98.50;;;14.41;100.00;100588.50;4909704;29;20242;-77
2023/05/31 01:03:18;;;;;;;8.70;2.55;;;14.10;98.80;;;14.48;100.00;100613.34;4910354;29;20241;-76
2023/05/31 01:05:46;;;;;;;11.38;4.60;;;14.10;98.60;;;14.55;100.00;100617.75;4907338;29;20245;-76
2023/05/31 01:08:14;;;;;;;16.58;4.18;;;14.10;99.00;;;14.55;100.00;100639.03;4908567;29;20245;-76
2023/05/31 01:10:41;;;;;;;12.88;3.00;;;14.10;99.40;;;14.56;100.00;100645.25;4904579;29;20239;-76
2023/05/31 01:13:35;;;;;;;10.30;2.55;;;14.20;99.10;;;14.52;100.00;100651.47;4908712;29;20238;-77
2023/05/31 01:16:12;;;;;;;11.27;3.05;;;14.10;99.20;;;14.36;100.00;100639.97;4916532;29;20724;-76
2023/05/31 01:18:46;;;;;;;11.43;2.95;;;14.10;99.40;;;14.50;100.00;100674.53;4909447;29;20238;-76
2023/05/31 01:21:17;;;;;;;11.52;2.83;;;14.00;99.50;;;14.31;100.00;100677.22;4907397;29;20758;-77
2023/05/31 01:24:26;;;;;;;12.43;3.10;;;13.90;99.50;;;14.26;100.00;100673.66;4890045;29;20242;-77
2023/05/31 01:27:00;;;;;;;11.35;2.92;;;13.90;99.60;;;14.21;100.00;100685.19;4909173;29;20298;-76
2023/05/31 01:29:30;;;;;;;26.52;7.25;;;13.90;99.80;;;14.25;100.00;100695.81;4894582;29;20246;-76
2023/05/31 01:31:59;;;;;;;9.60;2.63;;;13.80;99.80;;;14.15;100.00;100702.03;4905521;29;20263;-77
2023/05/31 01:34:26;;;;;;;14.60;4.10;;;13.80;99.90;;;14.17;100.00;100710.03;4906033;29;20239;-76
2023/05/31 01:36:54;;;;;;;14.35;3.85;;;;;;;14.16;100.00;100716.22;4909769;29;20243;-76
2023/05/31 01:39:21;;;;;;;9.07;2.35;;;;;;;14.13;100.00;100726.88;4908052;29;20330;-77
2023/05/31 01:41:50;;;;;;;14.52;3.75;;;13.80;99.90;;;14.11;100.00;100742.84;4907816;29;20239;-77
2023/05/31 01:44:19;;;;;;;8.15;2.53;;;;;;;14.10;100.00;100741.06;4907471;29;20239;-77
2023/05/31 01:46:47;;;;;;;10.15;2.88;;;;;;;14.12;100.00;100757.00;4910551;29;20235;-76
2023/05/31 01:49:15;;;;;;;7.53;2.58;;;;;;;14.08;100.00;100769.44;4909821;29;20238;-76
2023/05/31 01:51:45;;;;;;;7.50;2.78;;;13.70;99.90;;;14.05;100.00;100775.63;4904254;29;20227;-76
2023/05/31 01:54:12;;;;;;;6.38;2.28;;;13.70;99.90;;;14.05;100.00;100782.72;4900394;29;20609;-77
2023/05/31 01:56:41;;;;;;;6.60;2.33;;;13.70;99.90;;;14.09;100.00;100795.13;4907943;29;20243;-76
2023/05/31 01:59:10;;;;;;;5.80;2.20;;;13.70;99.90;;;13.96;100.00;100783.59;4906873;29;20321;-75
2023/05/31 02:01:38;;;;;;;6.60;2.47;;;13.60;99.90;;;14.03;100.00;100806.66;4922635;29;20243;-76
2023/05/31 02:04:06;;;;;;;7.43;2.83;;;;;;;14.00;100.00;100811.09;4911751;29;20627;-76
2023/05/31 02:06:37;;;;;;;7.90;3.20;;;13.60;99.90;;;13.95;100.00;100816.41;4911762;29;20243;-76
2023/05/31 02:09:06;;;;;;;6.93;2.78;;;13.60;99.90;;;13.92;100.00;100834.13;4905038;29;20648;-76
2023/05/31 02:11:34;;;;;;;7.13;2.95;;;;;;;13.95;100.00;100848.31;4906693;29;20242;-76
2023/05/31 02:14:01;;;;;;;6.45;2.47;;;;;;;13.85;100.00;100840.31;4906392;29;20245;-76
2023/05/31 02:16:29;;;;;;;8.63;3.22;;;;;;;13.81;100.00;100841.19;4888553;29;20239;-76
2023/05/31 02:18:58;;;;;;;7.50;2.97;;;;;;;13.84;100.00;100859.81;4902615;29;20318;-76
2023/05/31 02:21:26;;;;;;;8.18;3.08;;;;;;;13.92;100.00;100872.22;4904253;29;20286;-76
2023/05/31 02:23:53;;;;;;;5.45;2.40;;;;;;;13.86;100.00;100873.97;4909959;29;20239;-76
2023/05/31 02:26:21;;;;;;;8.63;3.33;;;;;;;13.73;100.00;100867.75;4904963;29;20260;-76
2023/05/31 02:28:49;;;;;;;5.63;2.15;;;;;;;13.71;100.00;100880.16;4914055;29;20253;-77
2023/05/31 02:31:16;;;;;;;5.07;2.10;;;;;;;13.78;100.00;100901.44;4911822;29;20235;-77
2023/05/31 02:33:43;;;;;;;6.90;2.72;;;13.50;99.90;;;13.69;100.00;100897.84;4912743;29;20243;-77
2023/05/31 02:36:11;;;;;;;5.70;2.38;;;;;;;13.66;100.00;100901.41;4912573;29;20238;-76
2023/05/31 02:38:39;;;;;;;8.23;3.15;;;13.30;99.90;;;13.67;100.00;100918.22;4908847;29;20242;-76
2023/05/31 02:41:06;;;;;;;5.80;2.15;;;;;;;13.65;100.00;100920.00;4911305;29;20235;-76
2023/05/31 02:43:34;;;;;;;4.60;1.92;;;;;;;13.57;100.00;100925.28;4912338;29;20243;-76
2023/05/31 02:46:02;;;;;;;6.63;2.70;;;;;;;13.47;100.00;100923.44;4911874;29;20242;-76
2023/05/31 02:48:29;;;;;;;5.63;2.35;;;;;;;13.43;100.00;100943.81;4911923;29;20254;-76
2023/05/31 02:50:57;;;;;;;6.63;2.53;;;;;;;13.47;100.00;100952.69;4912914;29;20242;-76
2023/05/31 02:53:26;;;;;;;9.55;3.35;;;;;;;13.39;100.00;100954.41;4908885;29;20239;-77
2023/05/31 02:55:54;;;;;;;8.57;3.05;;;;;;;13.46;100.00;100974.81;4908505;29;20239;-76
2023/05/31 02:58:21;;;;;;;9.38;3.08;;;;;;;13.36;100.00;100971.22;4911169;29;20250;-76
2023/05/31 03:00:48;;;;;;;7.32;2.63;;;13.10;99.90;;;13.41;100.00;100982.75;4905710;29;20247;-76
2023/05/31 03:03:18;;;;;;;6.53;2.55;;;;;;;13.30;100.00;100980.91;4909445;29;20242;-77
2023/05/31 03:05:46;;;;;;;7.43;2.63;;;;;;;13.32;100.00;100985.34;4916574;29;20234;-76
2023/05/31 03:08:14;;;;;;;5.47;2.13;;;;;;;13.32;100.00;101003.06;4913704;29;20247;-76
2023/05/31 03:10:41;;;;;;;6.72;2.45;;;;;;;13.28;100.00;101003.91;4908120;29;20234;-76
2023/05/31 03:13:09;;;;;;;5.43;2.03;;;;;;;13.24;100.00;101018.94;4905425;29;20310;-76
2023/05/31 03:15:37;;;;;;;7.47;2.85;;;;;;;13.23;100.00;101026.91;4910289;29;20295;-76
2023/05/31 03:18:05;;;;;;;5.47;2.08;;;;;;;13.15;100.00;101026.81;4911117;29;20318;-76
2023/05/31 03:20:34;;;;;;;6.18;2.60;;;;;;;13.24;100.00;101039.31;4913229;29;20243;-77
2023/05/31 03:23:02;;;;;;;6.88;2.42;;;;;;;13.16;100.00;101049.84;4912948;29;20247;-77
2023/05/31 03:25:30;;;;;;;9.32;3.13;;;;;;;13.17;100.00;101058.72;4911557;29;20235;-76
2023/05/31 03:27:57;;;;;;;6.15;2.35;;;;;;;13.23;100.00;101080.03;4927505;29;20279;-77
2023/05/31 03:30:25;;;;;;;9.13;3.05;;;;;;;13.10;100.00;101068.38;4909553;29;20333;-75
2023/05/31 03:32:52;;;;;;;10.85;3.45;;;;;;;13.06;100.00;101074.53;4903854;29;20363;-76
2023/05/31 03:35:20;;;;;;;6.38;2.42;;;;;;;13.02;100.00;101086.88;4911262;29;20235;-76
2023/05/31 03:37:47;;;;;;;6.53;2.15;;;;;;;13.00;100.00;101101.91;4907609;29;20322;-76
2023/05/31 03:40:15;;;;;;;9.40;2.80;;;;;;;13.20;100.00;101112.75;4909529;29;20314;-76
2023/05/31 03:42:43;;;;;;;13.75;4.15;;;;;;;13.05;100.00;101118.78;4904327;29;20601;-76
2023/05/31 03:45:10;;;;;;;7.72;2.50;;;;;;;13.01;100.00;101122.28;4911593;29;20684;-76
2023/05/31 03:47:38;;;;;;;7.43;2.45;;;;;;;12.98;100.00;101124.88;4913914;29;20674;-76
2023/05/31 03:50:05;;;;;;;7.25;2.58;;;12.70;99.90;;;12.97;100.00;101130.16;4908240;29;20231;-76
2023/05/31 03:52:33;;;;;;;8.25;2.67;;;;;;;13.01;100.00;101135.56;4911930;29;20243;-76
2023/05/31 03:55:02;;;;;;;7.63;2.53;;;;;;;12.93;100.00;101136.31;4912956;29;20266;-76
2023/05/31 03:57:29;;;;;;;7.63;2.60;;;;;;;12.93;100.00;101141.63;4910436;29;20269;-77
2023/05/31 03:59:57;;;;;;;6.03;2.08;;;;;;;12.90;100.00;101150.47;4909930;29;20262;-77
2023/05/31 04:02:24;;;;;;;7.25;2.65;;;;;;;12.88;100.00;101153.97;4909463;29;20321;-77
2023/05/31 04:04:52;;;;;;;6.28;2.10;;;;;;;12.95;100.00;101161.13;4911964;29;20312;-76
2023/05/31 04:07:20;;;;;;;6.53;2.30;;;;;;;12.96;100.00;101163.78;4913130;29;20303;-75
2023/05/31 04:09:48;;;;;;;7.65;2.63;;;;;;;12.97;100.00;101167.34;4913727;29;20700;-75
2023/05/31 04:12:15;;;;;;;6.38;2.33;;;;;;;12.89;100.00;101171.69;4912464;29;20266;-76
2023/05/31 04:14:42;;;;;;;6.70;2.30;;;12.60;99.90;;;12.90;100.00;101174.34;4913745;29;20270;-76
2023/05/31 04:17:10;;;;;;;7.40;2.47;;;;;;;12.97;100.00;101189.47;4911354;29;20266;-75
2023/05/31 04:19:37;;;;;;;5.68;2.00;;;;;;;13.04;100.00;101194.00;4911569;29;20254;-76
2023/05/31 04:22:04;;;;;;;15.57;4.40;;;12.70;99.90;;;13.13;100.00;101191.44;5001378;23;20258;-77
2023/05/31 04:24:32;;;;;;;6.10;2.47;;;12.80;99.90;;;13.09;100.00;101189.63;4911145;29;20249;-77
2023/05/31 04:26:59;;;;;;;3.35;1.50;;;12.60;99.90;;;13.15;100.00;101194.13;4909839;29;20237;-78
2023/05/31 04:29:26;;;;;;;7.15;2.83;;;12.80;99.90;;;13.23;100.00;101202.22;4912225;29;20243;-77
2023/05/31 04:31:53;;;;;;;5.68;2.15;;;12.90;99.90;;;13.26;100.00;101208.44;4910501;29;20239;-77
2023/05/31 04:34:20;;;;;;;4.63;1.90;;;12.90;99.90;;;13.25;100.00;101206.66;4906090;29;20231;-77
2023/05/31 04:36:48;;;;;;;6.32;2.58;;;12.90;99.90;;;13.29;100.00;101211.13;4911373;29;20688;-77
2023/05/31 04:39:19;;;;;;;5.28;2.33;;;;;;;13.33;100.00;101220.91;4910600;29;20239;-76
2023/05/31 04:41:46;;;;;;;5.60;2.70;;;13.00;99.90;;;13.37;100.00;101217.41;4911458;29;20231;-75
2023/05/31 04:44:14;;;;;;;4.60;1.95;;;13.10;99.90;;;13.46;100.00;101232.56;4911384;29;20631;-77
2023/05/31 04:46:40;;;;;;;4.10;1.85;;;13.10;99.90;;;13.47;100.00;101215.72;4910465;29;20241;-75
2023/05/31 04:49:09;;;;;;;3.88;1.63;;;13.10;99.90;;;13.52;100.00;101219.31;4914276;29;20251;-76
2023/05/31 04:51:36;;;;;;;4.20;1.77;;;13.20;99.90;;;13.58;100.00;101216.72;4913087;29;20243;-75
2023/05/31 04:54:04;;;;;;;3.10;1.40;;;13.30;99.90;;;13.65;100.00;101218.56;4913805;29;20250;-75
2023/05/31 04:56:31;;;;;;;4.80;2.03;;;13.30;99.90;;;13.69;100.00;101220.38;4912664;29;20243;-75
2023/05/31 04:58:58;;;;;;;4.47;1.80;;;13.40;99.90;;;13.79;100.00;101229.31;4912734;29;20246;-76
2023/05/31 05:01:26;;;;;;;4.50;2.03;;;;;;;13.89;100.00;101223.19;4903542;29;20236;-75
2023/05/31 05:03:53;;;;;;;3.92;1.70;;;;;;;13.97;100.00;101217.94;4910375;29;20234;-77
2023/05/31 05:06:22;;;;;;;6.30;2.30;;;13.60;99.90;;;14.03;100.00;101220.63;4905449;29;20251;-76
2023/05/31 05:08:49;;;;;;;6.38;2.55;;;13.70;99.90;;;14.10;100.00;101218.03;4920062;29;20250;-75
2023/05/31 05:11:16;;;;;;;5.30;2.00;;;13.70;99.90;;;14.15;100.00;101214.53;4913047;29;20243;-75
2023/05/31 05:13:43;;;;;;;4.55;1.85;;;13.80;99.90;;;14.24;100.00;101210.16;4912852;29;20239;-75
2023/05/31 05:16:11;;;;;;;4.60;1.83;;;13.90;99.90;;;14.29;100.00;101205.75;4913872;29;20243;-76
2023/05/31 05:18:38;;;;;;;4.63;1.83;;;14.10;99.90;;;14.40;100.00;101197.84;4913303;29;20318;-75
2023/05/31 05:21:05;;;;;;;5.82;2.20;;;14.00;99.90;;;14.45;100.00;101197.91;4913578;29;20238;-75
2023/05/31 05:23:34;;;;;;;5.55;2.10;;;14.10;99.90;;;14.53;100.00;101189.09;4909464;29;20730;-75
2023/05/31 05:26:03;;;;;;;3.63;1.60;;;14.20;99.90;;;14.67;100.00;101195.38;4913818;29;20243;-75
2023/05/31 05:28:31;;;;;;;3.83;1.65;;;;;;;14.75;100.00;101195.41;4914128;29;20354;-75
2023/05/31 05:30:58;;;;;;;4.50;1.85;;;;;;;14.76;100.00;101178.53;4910353;29;20244;-75
2023/05/31 05:33:28;;;;;;;3.25;1.70;;;14.40;99.90;;;14.87;100.00;101173.25;4905682;29;20330;-76
2023/05/31 05:35:55;;;;;;;2.95;1.50;;;;;;;14.91;100.00;101161.72;4910703;29;20255;-75
2023/05/31 05:38:23;;;;;;;4.85;2.13;;;14.60;99.90;;;15.01;100.00;101167.06;4916035;29;20239;-76
2023/05/31 05:40:50;;;;;;;3.78;1.70;;;14.60;99.90;;;15.05;100.00;101149.31;4917658;29;20254;-75
2023/05/31 05:43:17;;;;;;;3.80;1.58;;;14.70;99.90;;;15.19;100.00;101165.34;4917320;29;20242;-75
2023/05/31 05:45:44;;;;;;;2.53;1.30;;;14.80;99.90;;;15.17;100.00;101149.34;4916715;29;20719;-76
2023/05/31 05:48:11;;;;;;;4.35;2.10;;;14.80;99.90;;;15.21;100.00;101151.13;4915253;29;20267;-75
2023/05/31 05:50:38;;;;;;;2.45;1.60;;;14.90;99.90;;;15.37;100.00;101155.59;4916257;29;20235;-75
2023/05/31 05:53:06;;;;;;;1.98;1.27;;;;;;;15.32;100.00;101109.38;4916987;29;20238;-76
2023/05/31 05:55:34;;;;;;;2.35;1.85;;;15.00;99.90;;;15.38;100.00;101087.19;4916042;29;20235;-75
2023/05/31 05:58:02;;;;;;;2.47;1.58;;;;;;;15.60;100.00;101085.44;4915997;29;20250;-76
2023/05/31 06:00:29;;;;;;;2.80;1.48;;;15.20;99.90;;;15.59;100.00;101064.97;4909797;29;20254;-76
2023/05/31 06:02:56;;;;;;;2.83;1.33;;;;;;;15.66;100.00;101065.00;4912696;29;20251;-76
2023/05/31 06:05:26;;;;;;;2.42;1.52;;;15.30;99.90;;;15.74;100.00;101042.78;4916382;29;20281;-75
2023/05/31 06:07:54;;;;;;;1.65;1.08;;;15.50;99.90;;;15.74;100.00;101030.31;4916940;29;20253;-75
2023/05/31 06:10:21;;;;;;;1.58;1.15;;;15.50;99.90;;;15.95;100.00;101048.03;4916486;29;20303;-75
2023/05/31 06:12:48;;;;;;;2.38;1.52;;;15.60;99.90;;;15.98;100.00;101030.25;4916418;29;20246;-76
2023/05/31 06:15:15;;;;;;;1.80;1.40;;;;;;;16.13;100.00;101018.63;4915637;29;20266;-76
2023/05/31 06:17:43;;;;;;;1.73;1.20;;;;;;;16.11;100.00;101020.41;4910848;29;20235;-76
2023/05/31 06:20:10;;;;;;;1.77;1.20;;;15.90;99.90;;;16.27;100.00;101008.78;4910268;29;20334;-75
2023/05/31 06:22:38;;;;;;;2.28;1.40;;;16.00;99.90;;;16.42;100.00;100993.56;4907820;29;20254;-75
2023/05/31 06:25:06;;;;;;;2.25;1.48;;;15.90;99.90;;;16.39;100.00;100982.91;4916718;29;20248;-75
2023/05/31 06:27:33;;;;;;;2.55;1.42;;;15.90;99.90;;;16.45;100.00;100975.75;4916175;29;20250;-76
2023/05/31 06:30:01;;;;;;;2.13;1.30;;;16.10;99.90;;;16.62;100.00;100975.63;4916108;29;20243;-75
2023/05/31 06:32:28;;;;;;;3.67;1.98;;;16.30;99.90;;;16.66;100.00;100964.06;4906922;29;20227;-78
2023/05/31 06:34:55;;;;;;;3.08;1.52;;;16.40;99.90;;;16.83;100.00;100962.16;4915273;29;20239;-77
2023/05/31 06:37:23;;;;;;;3.00;1.67;;;16.50;99.90;;;16.86;100.00;100961.22;4915532;29;20250;-76
2023/05/31 06:39:50;;;;;;;2.35;1.30;;;16.50;99.90;;;17.08;100.00;100946.81;4914650;29;20243;-78
2023/05/31 06:42:18;;;;;;;2.28;1.27;;;16.80;99.90;;;17.30;100.00;100886.00;4915993;29;20247;-76
2023/05/31 06:44:45;;;;;;;2.63;1.50;;;16.80;99.90;;;17.45;100.00;100852.84;4911981;29;20239;-76
2023/05/31 06:47:23;;;;;;;2.28;1.35;;;17.10;99.90;;;17.58;100.00;100817.91;4904986;29;20246;-77
2023/05/31 06:49:51;;;;;;;2.80;1.50;;;17.10;99.90;;;17.76;100.00;100776.69;4910513;29;20578;-76
2023/05/31 06:52:18;;;;;;;1.85;1.20;;;17.30;99.90;;;17.78;100.00;100733.84;4914227;29;20247;-76
2023/05/31 06:54:45;;;;;;;3.15;1.80;;;17.30;99.90;;;17.74;100.00;100686.66;4914264;29;20245;-76
2023/05/31 06:57:19;;;;;;;3.05;1.50;;;17.50;99.90;;;17.92;100.00;100691.69;4929470;29;20254;-76
2023/05/31 06:59:46;;;;;;;1.42;0.98;;;17.60;99.80;;;18.06;100.00;100683.44;4908462;29;20242;-78
2023/05/31 07:02:15;;;;;;;0.47;0.47;;;;;;;18.18;100.00;100678.75;4900042;29;20247;-78
2023/05/31 07:04:43;;;;;;;0.80;0.70;;;;;;;18.37;100.00;100684.66;4906440;29;20230;-78
2023/05/31 07:07:10;;;;;;;0.60;0.60;;;18.00;99.90;;;18.40;100.00;100671.22;4915937;29;20235;-77
2023/05/31 07:09:41;;;;;;;0.90;0.70;;;18.00;99.40;;;18.43;100.00;100641.72;4914929;29;20322;-76
2023/05/31 07:12:08;;;;;;;0.32;0.32;;;18.30;99.40;;;18.68;100.00;100643.91;4915821;29;20246;-76
2023/05/31 07:14:36;;;;;;;0.55;0.55;;;18.30;99.20;;;18.69;100.00;100609.06;4915020;29;20251;-75
2023/05/31 07:17:04;;;;;;;0.50;0.50;;;18.30;98.50;;;18.73;100.00;100548.25;4915769;29;20324;-76
2023/05/31 07:19:31;;;;;;;0.82;0.52;;;18.60;98.20;;;18.98;100.00;100529.81;4915108;29;20243;-77
2023/05/31 07:21:58;;;;;;;0.40;0.40;;;;;;;18.90;100.00;100489.81;4915446;29;20239;-76
2023/05/31 07:24:25;;;;;;;0.82;0.73;;;18.80;97.70;;;19.14;100.00;100499.03;4908293;29;20726;-80
2023/05/31 07:26:52;;;;;;;1.05;0.98;;;18.80;97.00;;;19.38;100.00;100446.56;4911158;29;20231;-79
2023/05/31 07:29:19;;;;;;;0.65;0.65;;;19.00;96.80;;;19.42;100.00;100408.91;4907299;29;20333;-79
2023/05/31 07:31:47;;;;;;;0.47;0.47;;;19.10;97.40;;;19.47;100.00;100396.25;4908335;29;20294;-78
2023/05/31 07:34:17;;;;;;;0.40;0.40;;;19.10;97.40;;;19.60;100.00;100398.66;4906761;29;20267;-76
2023/05/31 07:36:50;;;;;;;0.47;0.47;;;19.40;96.80;;;19.87;100.00;100395.16;4910812;29;20239;-78
2023/05/31 07:39:18;;;;;;;0.50;0.50;;;;;;;20.02;100.00;100402.75;4914085;29;20243;-74
2023/05/31 07:41:45;;;;;;;0.73;0.73;;;19.60;96.60;;;20.07;100.00;100359.66;4915335;29;20604;-75
2023/05/31 07:44:12;;;;;;;0.50;0.50;;;19.80;96.20;;;20.21;100.00;100330.56;4919248;29;20243;-77
2023/05/31 07:46:39;;;;;;;0.47;0.47;;;19.80;95.80;;;20.34;100.00;100297.00;4912667;29;20680;-78
2023/05/31 07:49:06;;;;;;;0.38;0.38;;;;;;;20.34;100.00;100264.78;4911685;29;20246;-77
2023/05/31 07:51:34;;;;;;;0.40;0.40;;;19.90;95.20;;;20.31;100.00;100207.63;4915429;29;20234;-78
2023/05/31 07:54:02;;;;;;;3.22;1.25;;;;;;;20.51;100.00;100199.78;4912680;29;20247;-77
2023/05/31 07:56:29;;;;;;;0.43;0.43;;;;;;;20.59;100.00;100175.31;4912191;29;20245;-78
2023/05/31 07:58:57;;;;;;;0.40;0.40;;;20.50;94.00;;;20.98;100.00;100141.63;4913997;29;20286;-79
2023/05/31 08:01:24;;;;;;;0.47;0.45;;;;;;;20.76;100.00;100098.53;4919826;29;20330;-79
2023/05/31 08:03:59;;;;;;;1.02;0.95;;;20.60;94.00;;;21.05;100.00;100089.38;4908976;29;20242;-79
2023/05/31 08:06:26;;;;;;;0.38;0.38;;;20.50;93.30;;;20.93;100.00;100038.78;4902203;29;20237;-78
2023/05/31 08:08:55;;;;;;;0.50;0.45;;;;;;;21.18;100.00;100062.84;4924413;29;20259;-79
2023/05/31 08:11:22;;;;;;;0.30;0.30;;;;;;;21.44;100.00;100064.50;4913364;29;20705;-78
2023/05/31 08:13:49;;;;;;;0.45;0.45;;;21.20;93.20;;;21.68;97.92;100035.69;4912341;29;20253;-79
2023/05/31 08:16:16;;;;;;;0.40;0.40;;;21.30;93.10;;;21.75;96.49;99996.81;4912557;29;20238;-78
2023/05/31 08:18:44;;;;;;;0.40;0.40;;;21.50;91.20;;;21.79;90.09;99908.72;4915223;29;20239;-77
2023/05/31 08:21:12;;;;;;;0.68;0.68;;;21.50;90.80;;;21.83;84.26;99805.38;4891862;29;20234;-77
2023/05/31 08:23:39;;;;;;;0.30;0.30;;;21.50;90.40;;;21.66;82.08;99730.81;4910242;29;20290;-77
2023/05/31 08:26:06;;;;;;;0.50;0.50;;;21.60;91.30;;;22.05;86.66;99808.81;4908008;29;20230;-77
2023/05/31 08:28:34;;;;;;;0.30;0.30;;;21.60;91.20;;;22.22;80.98;99744.28;4911612;29;20240;-78
2023/05/31 08:31:01;;;;;;;0.30;0.30;;;21.90;89.80;;;22.41;80.48;99733.44;4907268;29;20238;-77
2023/05/31 08:33:33;;;;;;;0.55;0.55;;;22.10;90.00;;;22.81;79.76;99743.06;4894219;29;20238;-77
2023/05/31 08:36:04;;;;;;;0.35;0.35;;;22.30;90.40;;;22.93;77.93;99695.72;4903314;29;20246;-77
2023/05/31 08:38:32;;;;;;;0.50;0.50;;;22.60;89.80;;;22.94;76.19;99652.50;4911424;29;20246;-78
2023/05/31 08:41:03;;;;;;;0.10;0.10;;;22.60;89.00;;;22.67;73.50;99536.25;4906722;29;20245;-78
2023/05/31 08:43:32;;;;;;;0.15;0.15;;;22.40;87.10;;;23.10;74.29;99595.91;4919395;29;20241;-78
2023/05/31 08:46:00;;;;;;;0.28;0.28;;;22.90;87.80;;;23.19;71.98;99554.94;4905254;29;20238;-78
2023/05/31 08:48:53;;;;;;;0.30;0.30;;;22.90;86.80;;;23.56;71.23;99563.69;4906256;29;20227;-78
2023/05/31 08:51:24;;;;;;;0.20;0.20;;;23.00;87.40;;;23.56;70.72;99515.97;4905287;29;20293;-78
2023/05/31 08:53:51;;;;;;;0.20;0.20;;;23.10;87.30;;;23.39;71.57;99483.63;4905099;29;20691;-78
2023/05/31 08:56:23;;;;;;;0.20;0.20;;;23.10;86.40;;;23.14;64.74;99325.09;4915968;29;20257;-78
2023/05/31 08:58:51;;;;;;;0.20;0.20;;;23.10;82.50;;;23.55;64.39;99360.41;4919314;29;20277;-78
2023/05/31 09:01:19;;;;;;;0.20;0.20;;;23.10;83.80;;;23.81;61.73;99322.81;4909046;29;20294;-78
2023/05/31 09:03:47;;;;;;;0.10;0.10;;;23.50;82.50;;;23.94;64.41;99373.25;4912223;29;20258;-78
2023/05/31 09:06:14;;;;;;;0.20;0.20;;;23.60;83.90;;;23.75;61.04;99242.22;4910292;29;20242;-78
2023/05/31 09:08:42;;;;;;;0.52;0.52;;;23.60;82.10;;;23.94;57.50;99213.06;4912934;29;20234;-78
2023/05/31 09:11:10;;;;;;;0.17;0.17;;;23.60;79.70;;;23.77;57.88;99152.09;4910052;29;20695;-78
2023/05/31 09:13:37;;;;;;;0.13;0.13;;;23.60;80.30;;;24.33;60.94;99281.69;4903697;29;20226;-79
2023/05/31 09:16:04;;;;;;;0.10;0.10;;;24.00;82.40;;;24.30;59.77;99215.22;4910414;29;20234;-82
2023/05/31 09:18:39;;;;;;;0.30;0.30;;;23.90;81.30;;;24.49;57.78;99188.69;4918506;29;20596;-80
2023/05/31 09:21:13;;;;;;;0.10;0.10;;;24.20;80.50;;;24.49;56.07;99131.94;4911183;29;20237;-78
2023/05/31 09:23:59;;;;;;;0.22;0.22;;;24.30;78.80;;;24.04;55.77;99010.81;4908756;29;20286;-81
2023/05/31 09:26:28;;;;;;;0.40;0.40;;;24.10;78.60;;;24.14;56.47;99023.56;4910528;29;20249;-80
2023/05/31 09:28:55;;;;;;;0.20;0.20;;;24.10;78.20;;;24.44;56.04;99057.56;4907171;29;20274;-79
2023/05/31 09:31:23;;;;;;;0.20;0.20;;;24.10;79.60;;;23.89;55.59;98929.88;4912740;29;20250;-78
2023/05/31 09:33:51;;;;;;;0.45;0.45;;;23.90;78.30;;;24.32;56.96;99013.34;4910661;29;20234;-80
2023/05/31 09:36:27;;;;;;;0.30;0.30;;;23.90;79.40;;;24.65;53.96;99017.34;4910706;29;20265;-79
2023/05/31 09:39:05;;;;;;;0.20;0.20;;;24.30;77.90;;;24.64;57.26;99019.19;4916551;29;20256;-82
2023/05/31 09:41:33;;;;;;;0.35;0.35;;;24.20;80.40;;;25.28;56.09;99101.16;4908895;29;20669;-80
2023/05/31 09:44:00;;;;;;;0.20;0.20;;;24.80;80.60;;;25.12;53.43;98989.63;4907483;29;20237;-84
2023/05/31 09:46:27;;;;;;;0.20;0.20;;;25.00;78.00;;;25.52;53.20;99017.31;4923465;29;20249;-79
2023/05/31 09:49:09;;;;;;;0.30;0.30;;;25.00;78.60;;;24.85;52.79;98873.53;4907768;29;20238;-81
2023/05/31 09:51:36;;;;;;;0.20;0.20;;;24.80;77.30;;;24.49;50.82;98760.84;4909448;29;20238;-78
2023/05/31 09:54:13;;;;;;;0.10;0.10;;;24.40;75.00;;;25.13;48.54;98819.09;4911257;29;20241;-81
2023/05/31 09:56:41;;;;;;;0.30;0.30;;;24.80;74.60;;;25.56;51.16;98909.66;4910138;29;20237;-80
2023/05/31 09:59:10;;;;;;;0.10;0.10;;;25.40;73.80;;;25.68;48.38;98838.38;4913306;29;20253;-82
2023/05/31 10:01:37;;;;;;;0.35;0.28;;;25.40;74.70;;;25.59;48.60;98812.00;4912899;29;20242;-83
2023/05/31 10:04:05;;;;;;;0.30;0.30;;;25.20;74.70;;;25.68;51.65;98882.53;4911517;29;20254;-82
2023/05/31 10:06:37;;;;;;;0.20;0.20;;;25.40;77.20;;;24.69;50.88;98662.91;4911446;29;20241;-78
2023/05/31 10:09:07;;;;;;;0.20;0.20;;;24.60;76.10;;;24.94;50.50;98713.28;4912048;29;20234;-80
2023/05/31 10:11:37;;;;;;;0.35;0.35;;;24.50;76.10;;;24.68;47.09;98569.31;4913021;29;20717;-79
2023/05/31 10:14:21;;;;;;;0.85;0.85;;;24.70;72.60;;;24.87;49.67;98658.81;4903823;29;20245;-79
2023/05/31 10:16:55;;;;;;;0.15;0.15;;;24.60;77.00;;;25.11;47.86;98647.09;4904759;29;20231;-78
2023/05/31 10:19:35;;;;;;;0.20;0.20;;;24.80;74.20;;;25.31;50.37;98716.72;4911473;29;20237;-77
2023/05/31 10:22:04;;;;;;;0.50;0.50;;;25.00;76.10;;;25.79;48.94;98768.84;4910765;29;20261;-80
2023/05/31 10:24:51;;;;;;;0.10;0.10;;;25.40;74.60;;;25.51;49.82;98716.00;4897275;29;20242;-79
2023/05/31 10:27:36;;;;;;;0.20;0.20;;;25.40;75.20;;;25.98;49.25;98767.38;4913973;29;20237;-79
2023/05/31 10:30:04;;;;;;;0.35;0.35;;;25.50;75.30;;;26.02;50.70;98802.25;4914889;29;20246;-79
2023/05/31 10:32:51;;;;;;;0.10;0.10;;;25.70;76.50;;;26.08;49.57;98744.88;4911768;29;20258;-79
2023/05/31 10:35:18;;;;;;;0.10;0.10;;;25.50;76.00;;;26.27;50.53;98793.00;4902893;29;22013;-79